sensor_id;sensor_type;location;lat;lon;timestamp;P1;durP1;ratioP1;P2;durP2;ratioP2
33987;SDS011;37428;53.580;-1.666;2023-08-06T00:02:26;7.15;;;3.38;;
33987;SDS011;37428;53.580;-1.666;2023-08-06T00:05:29;6.25;;;3.85;;
33987;SDS011;37428;53.580;-1.666;2023-08-06T00:08:32;5.63;;;3.33;;
33987;SDS011;37428;53.580;-1.666;2023-08-06T00:11:34;7.15;;;3.42;;
33987;SDS011;37428;53.580;-1.666;2023-08-06T00:14:36;4.63;;;2.83;;
33987;SDS011;37428;53.580;-1.666;2023-08-06T00:17:38;5.55;;;3.17;;
33987;SDS011;37428;53.580;-1.666;2023-08-06T00:20:42;5.28;;;3.47;;
33987;SDS011;37428;53.580;-1.666;2023-08-06T00:23:44;5.63;;;3.28;;
33987;SDS011;37428;53.580;-1.666;2023-08-06T00:26:46;5.38;;;3.33;;
33987;SDS011;37428;53.580;-1.666;2023-08-06T00:29:48;9.63;;;3.80;;
33987;SDS011;37428;53.580;-1.666;2023-08-06T00:32:50;7.45;;;3.85;;
33987;SDS011;37428;53.580;-1.666;2023-08-06T00:35:54;5.80;;;4.00;;
33987;SDS011;37428;53.580;-1.666;2023-08-06T00:38:56;7.55;;;3.13;;
33987;SDS011;37428;53.580;-1.666;2023-08-06T00:41:58;4.95;;;2.83;;
33987;SDS011;37428;53.580;-1.666;2023-08-06T00:45:00;4.25;;;3.85;;
33987;SDS011;37428;53.580;-1.666;2023-08-06T00:48:03;7.55;;;3.72;;
33987;SDS011;37428;53.580;-1.666;2023-08-06T00:51:08;9.02;;;4.00;;
33987;SDS011;37428;53.580;-1.666;2023-08-06T00:54:11;7.68;;;4.05;;
33987;SDS011;37428;53.580;-1.666;2023-08-06T00:57:16;7.65;;;4.07;;
33987;SDS011;37428;53.580;-1.666;2023-08-06T01:00:18;3.67;;;3.38;;
33987;SDS011;37428;53.580;-1.666;2023-08-06T01:03:21;6.60;;;3.63;;
33987;SDS011;37428;53.580;-1.666;2023-08-06T01:06:29;7.22;;;4.43;;
33987;SDS011;37428;53.580;-1.666;2023-08-06T01:09:43;5.32;;;3.47;;
33987;SDS011;37428;53.580;-1.666;2023-08-06T01:12:51;7.40;;;3.75;;
33987;SDS011;37428;53.580;-1.666;2023-08-06T01:15:59;8.25;;;3.80;;
33987;SDS011;37428;53.580;-1.666;2023-08-06T01:19:03;5.93;;;3.85;;
33987;SDS011;37428;53.580;-1.666;2023-08-06T01:22:18;6.13;;;4.07;;
33987;SDS011;37428;53.580;-1.666;2023-08-06T01:25:20;3.63;;;3.20;;
33987;SDS011;37428;53.580;-1.666;2023-08-06T01:28:30;6.65;;;3.60;;
33987;SDS011;37428;53.580;-1.666;2023-08-06T01:31:42;7.47;;;3.60;;
33987;SDS011;37428;53.580;-1.666;2023-08-06T01:34:45;6.47;;;3.80;;
33987;SDS011;37428;53.580;-1.666;2023-08-06T01:37:51;7.85;;;3.85;;
33987;SDS011;37428;53.580;-1.666;2023-08-06T01:40:53;7.53;;;3.83;;
33987;SDS011;37428;53.580;-1.666;2023-08-06T01:43:55;5.32;;;3.83;;
33987;SDS011;37428;53.580;-1.666;2023-08-06T01:46:59;8.02;;;4.15;;
33987;SDS011;37428;53.580;-1.666;2023-08-06T01:50:01;4.15;;;3.53;;
33987;SDS011;37428;53.580;-1.666;2023-08-06T01:53:05;5.07;;;3.45;;
33987;SDS011;37428;53.580;-1.666;2023-08-06T01:56:07;7.72;;;4.13;;
33987;SDS011;37428;53.580;-1.666;2023-08-06T01:59:09;5.43;;;4.53;;
33987;SDS011;37428;53.580;-1.666;2023-08-06T02:02:12;29.73;;;6.03;;
33987;SDS011;37428;53.580;-1.666;2023-08-06T02:05:14;7.63;;;4.97;;
33987;SDS011;37428;53.580;-1.666;2023-08-06T02:08:20;8.57;;;4.32;;
33987;SDS011;37428;53.580;-1.666;2023-08-06T02:11:22;5.47;;;4.25;;
33987;SDS011;37428;53.580;-1.666;2023-08-06T02:14:24;11.25;;;4.75;;
33987;SDS011;37428;53.580;-1.666;2023-08-06T02:17:26;6.05;;;3.67;;
33987;SDS011;37428;53.580;-1.666;2023-08-06T02:20:28;6.78;;;4.63;;
33987;SDS011;37428;53.580;-1.666;2023-08-06T02:23:32;6.90;;;5.22;;
33987;SDS011;37428;53.580;-1.666;2023-08-06T02:26:34;5.68;;;3.72;;
33987;SDS011;37428;53.580;-1.666;2023-08-06T02:29:36;4.20;;;3.78;;
33987;SDS011;37428;53.580;-1.666;2023-08-06T02:32:41;8.60;;;4.38;;
33987;SDS011;37428;53.580;-1.666;2023-08-06T02:35:43;5.57;;;4.53;;
33987;SDS011;37428;53.580;-1.666;2023-08-06T02:38:49;7.85;;;3.88;;
33987;SDS011;37428;53.580;-1.666;2023-08-06T02:41:51;8.82;;;4.20;;
33987;SDS011;37428;53.580;-1.666;2023-08-06T02:44:54;8.70;;;5.13;;
33987;SDS011;37428;53.580;-1.666;2023-08-06T02:47:56;5.97;;;3.65;;
33987;SDS011;37428;53.580;-1.666;2023-08-06T02:50:58;5.28;;;3.83;;
33987;SDS011;37428;53.580;-1.666;2023-08-06T02:57:05;4.93;;;4.03;;
33987;SDS011;37428;53.580;-1.666;2023-08-06T03:00:08;6.40;;;3.90;;
33987;SDS011;37428;53.580;-1.666;2023-08-06T03:03:11;7.97;;;4.90;;
33987;SDS011;37428;53.580;-1.666;2023-08-06T03:06:13;4.78;;;3.40;;
33987;SDS011;37428;53.580;-1.666;2023-08-06T03:09:17;4.63;;;3.80;;
33987;SDS011;37428;53.580;-1.666;2023-08-06T03:12:19;3.88;;;3.55;;
33987;SDS011;37428;53.580;-1.666;2023-08-06T03:15:21;6.05;;;3.40;;
33987;SDS011;37428;53.580;-1.666;2023-08-06T03:18:24;6.10;;;3.40;;
33987;SDS011;37428;53.580;-1.666;2023-08-06T03:21:26;4.38;;;3.53;;
33987;SDS011;37428;53.580;-1.666;2023-08-06T03:24:30;5.05;;;3.55;;
33987;SDS011;37428;53.580;-1.666;2023-08-06T03:27:32;5.10;;;3.60;;
33987;SDS011;37428;53.580;-1.666;2023-08-06T03:30:34;4.80;;;3.90;;
33987;SDS011;37428;53.580;-1.666;2023-08-06T03:33:36;5.68;;;3.85;;
33987;SDS011;37428;53.580;-1.666;2023-08-06T03:36:38;7.25;;;3.60;;
33987;SDS011;37428;53.580;-1.666;2023-08-06T03:39:42;4.80;;;3.42;;
33987;SDS011;37428;53.580;-1.666;2023-08-06T03:42:44;5.25;;;3.40;;
33987;SDS011;37428;53.580;-1.666;2023-08-06T03:45:47;8.35;;;3.55;;
33987;SDS011;37428;53.580;-1.666;2023-08-06T03:48:49;5.57;;;3.38;;
33987;SDS011;37428;53.580;-1.666;2023-08-06T03:51:51;7.13;;;3.90;;
33987;SDS011;37428;53.580;-1.666;2023-08-06T03:54:55;5.63;;;4.20;;
33987;SDS011;37428;53.580;-1.666;2023-08-06T03:57:57;5.53;;;3.40;;
33987;SDS011;37428;53.580;-1.666;2023-08-06T04:00:59;8.48;;;3.35;;
33987;SDS011;37428;53.580;-1.666;2023-08-06T04:04:01;4.88;;;3.58;;
33987;SDS011;37428;53.580;-1.666;2023-08-06T04:07:04;9.43;;;3.60;;
33987;SDS011;37428;53.580;-1.666;2023-08-06T04:10:08;6.35;;;3.92;;
33987;SDS011;37428;53.580;-1.666;2023-08-06T04:13:10;4.95;;;3.55;;
33987;SDS011;37428;53.580;-1.666;2023-08-06T04:16:12;4.07;;;3.70;;
33987;SDS011;37428;53.580;-1.666;2023-08-06T04:19:15;4.72;;;4.13;;
33987;SDS011;37428;53.580;-1.666;2023-08-06T04:22:17;4.90;;;3.45;;
33987;SDS011;37428;53.580;-1.666;2023-08-06T04:25:21;9.20;;;4.28;;
33987;SDS011;37428;53.580;-1.666;2023-08-06T04:28:23;5.15;;;3.78;;
33987;SDS011;37428;53.580;-1.666;2023-08-06T04:31:25;7.65;;;3.75;;
33987;SDS011;37428;53.580;-1.666;2023-08-06T04:34:27;6.25;;;3.83;;
33987;SDS011;37428;53.580;-1.666;2023-08-06T04:37:31;6.05;;;3.97;;
33987;SDS011;37428;53.580;-1.666;2023-08-06T04:40:35;4.95;;;3.88;;
33987;SDS011;37428;53.580;-1.666;2023-08-06T04:43:37;9.63;;;3.97;;
33987;SDS011;37428;53.580;-1.666;2023-08-06T04:46:39;4.07;;;3.50;;
33987;SDS011;37428;53.580;-1.666;2023-08-06T04:49:41;7.60;;;3.97;;
33987;SDS011;37428;53.580;-1.666;2023-08-06T04:52:43;5.57;;;3.35;;
33987;SDS011;37428;53.580;-1.666;2023-08-06T04:55:47;4.93;;;3.78;;
33987;SDS011;37428;53.580;-1.666;2023-08-06T04:58:49;5.45;;;3.33;;
33987;SDS011;37428;53.580;-1.666;2023-08-06T05:01:51;5.35;;;4.00;;
33987;SDS011;37428;53.580;-1.666;2023-08-06T05:04:53;7.22;;;3.90;;
33987;SDS011;37428;53.580;-1.666;2023-08-06T05:07:56;4.13;;;3.70;;
33987;SDS011;37428;53.580;-1.666;2023-08-06T05:11:00;4.93;;;3.67;;
33987;SDS011;37428;53.580;-1.666;2023-08-06T05:14:02;5.90;;;3.65;;
33987;SDS011;37428;53.580;-1.666;2023-08-06T05:17:05;6.85;;;3.75;;
33987;SDS011;37428;53.580;-1.666;2023-08-06T05:20:07;6.25;;;3.20;;
33987;SDS011;37428;53.580;-1.666;2023-08-06T05:23:10;3.70;;;3.08;;
33987;SDS011;37428;53.580;-1.666;2023-08-06T05:26:13;4.30;;;3.88;;
33987;SDS011;37428;53.580;-1.666;2023-08-06T05:29:18;5.45;;;3.67;;
33987;SDS011;37428;53.580;-1.666;2023-08-06T05:32:20;7.38;;;3.85;;
33987;SDS011;37428;53.580;-1.666;2023-08-06T05:35:22;4.25;;;3.47;;
33987;SDS011;37428;53.580;-1.666;2023-08-06T05:38:25;6.75;;;3.33;;
33987;SDS011;37428;53.580;-1.666;2023-08-06T05:41:29;4.00;;;3.08;;
33987;SDS011;37428;53.580;-1.666;2023-08-06T05:44:31;3.50;;;3.20;;
33987;SDS011;37428;53.580;-1.666;2023-08-06T05:47:33;6.85;;;3.63;;
33987;SDS011;37428;53.580;-1.666;2023-08-06T05:50:35;4.00;;;2.88;;
33987;SDS011;37428;53.580;-1.666;2023-08-06T05:53:37;4.68;;;3.33;;
33987;SDS011;37428;53.580;-1.666;2023-08-06T05:56:41;4.38;;;3.40;;
33987;SDS011;37428;53.580;-1.666;2023-08-06T05:59:43;3.60;;;2.80;;
33987;SDS011;37428;53.580;-1.666;2023-08-06T06:02:46;6.03;;;3.80;;
33987;SDS011;37428;53.580;-1.666;2023-08-06T06:05:48;4.28;;;3.40;;
33987;SDS011;37428;53.580;-1.666;2023-08-06T06:08:50;5.50;;;3.33;;
33987;SDS011;37428;53.580;-1.666;2023-08-06T06:11:54;3.70;;;2.97;;
33987;SDS011;37428;53.580;-1.666;2023-08-06T06:14:56;4.45;;;3.03;;
33987;SDS011;37428;53.580;-1.666;2023-08-06T06:17:58;3.88;;;2.97;;
33987;SDS011;37428;53.580;-1.666;2023-08-06T06:21:00;4.05;;;3.22;;
33987;SDS011;37428;53.580;-1.666;2023-08-06T06:24:02;4.35;;;3.42;;
33987;SDS011;37428;53.580;-1.666;2023-08-06T06:30:10;5.40;;;3.20;;
33987;SDS011;37428;53.580;-1.666;2023-08-06T06:33:15;5.00;;;3.53;;
33987;SDS011;37428;53.580;-1.666;2023-08-06T06:36:17;5.35;;;3.53;;
33987;SDS011;37428;53.580;-1.666;2023-08-06T06:39:19;3.90;;;3.17;;
33987;SDS011;37428;53.580;-1.666;2023-08-06T06:42:25;4.22;;;3.15;;
33987;SDS011;37428;53.580;-1.666;2023-08-06T06:45:27;4.82;;;3.15;;
33987;SDS011;37428;53.580;-1.666;2023-08-06T06:48:29;5.80;;;3.33;;
33987;SDS011;37428;53.580;-1.666;2023-08-06T06:51:32;5.78;;;3.15;;
33987;SDS011;37428;53.580;-1.666;2023-08-06T06:54:34;5.30;;;3.22;;
33987;SDS011;37428;53.580;-1.666;2023-08-06T06:57:38;4.85;;;3.17;;
33987;SDS011;37428;53.580;-1.666;2023-08-06T07:00:40;7.00;;;3.30;;
33987;SDS011;37428;53.580;-1.666;2023-08-06T07:03:42;5.53;;;2.88;;
33987;SDS011;37428;53.580;-1.666;2023-08-06T07:06:44;4.05;;;3.15;;
33987;SDS011;37428;53.580;-1.666;2023-08-06T07:09:47;6.57;;;3.63;;
33987;SDS011;37428;53.580;-1.666;2023-08-06T07:12:50;6.28;;;3.67;;
33987;SDS011;37428;53.580;-1.666;2023-08-06T07:15:52;4.40;;;2.70;;
33987;SDS011;37428;53.580;-1.666;2023-08-06T07:18:56;6.85;;;3.38;;
33987;SDS011;37428;53.580;-1.666;2023-08-06T07:21:58;3.40;;;3.00;;
33987;SDS011;37428;53.580;-1.666;2023-08-06T07:25:02;4.72;;;2.88;;
33987;SDS011;37428;53.580;-1.666;2023-08-06T07:28:05;6.80;;;2.70;;
33987;SDS011;37428;53.580;-1.666;2023-08-06T07:31:08;5.13;;;3.08;;
33987;SDS011;37428;53.580;-1.666;2023-08-06T07:34:10;3.33;;;2.92;;
33987;SDS011;37428;53.580;-1.666;2023-08-06T07:37:12;3.35;;;2.97;;
33987;SDS011;37428;53.580;-1.666;2023-08-06T07:40:14;3.97;;;2.42;;
33987;SDS011;37428;53.580;-1.666;2023-08-06T07:43:18;4.18;;;2.53;;
33987;SDS011;37428;53.580;-1.666;2023-08-06T07:46:20;4.47;;;2.50;;
33987;SDS011;37428;53.580;-1.666;2023-08-06T07:49:22;8.90;;;3.03;;
33987;SDS011;37428;53.580;-1.666;2023-08-06T07:52:24;3.55;;;3.03;;
33987;SDS011;37428;53.580;-1.666;2023-08-06T07:55:27;3.40;;;2.60;;
33987;SDS011;37428;53.580;-1.666;2023-08-06T07:58:30;4.07;;;2.50;;
33987;SDS011;37428;53.580;-1.666;2023-08-06T08:01:32;2.80;;;1.95;;
33987;SDS011;37428;53.580;-1.666;2023-08-06T08:04:34;2.78;;;2.58;;
33987;SDS011;37428;53.580;-1.666;2023-08-06T08:07:37;3.20;;;2.63;;
33987;SDS011;37428;53.580;-1.666;2023-08-06T08:10:39;2.70;;;2.45;;
33987;SDS011;37428;53.580;-1.666;2023-08-06T08:13:42;2.72;;;2.53;;
33987;SDS011;37428;53.580;-1.666;2023-08-06T08:16:46;4.07;;;2.42;;
33987;SDS011;37428;53.580;-1.666;2023-08-06T08:19:48;3.88;;;2.78;;
33987;SDS011;37428;53.580;-1.666;2023-08-06T08:22:51;2.78;;;2.45;;
33987;SDS011;37428;53.580;-1.666;2023-08-06T08:25:54;4.25;;;3.08;;
33987;SDS011;37428;53.580;-1.666;2023-08-06T08:28:58;3.10;;;2.50;;
33987;SDS011;37428;53.580;-1.666;2023-08-06T08:32:00;3.47;;;2.25;;
33987;SDS011;37428;53.580;-1.666;2023-08-06T08:35:04;2.83;;;2.35;;
33987;SDS011;37428;53.580;-1.666;2023-08-06T08:38:08;3.58;;;2.03;;
33987;SDS011;37428;53.580;-1.666;2023-08-06T08:41:10;4.40;;;2.35;;
33987;SDS011;37428;53.580;-1.666;2023-08-06T08:44:14;4.15;;;2.42;;
33987;SDS011;37428;53.580;-1.666;2023-08-06T08:47:18;10.85;;;2.17;;
33987;SDS011;37428;53.580;-1.666;2023-08-06T08:50:21;3.38;;;2.22;;
33987;SDS011;37428;53.580;-1.666;2023-08-06T08:53:23;3.58;;;2.30;;
33987;SDS011;37428;53.580;-1.666;2023-08-06T08:56:26;3.58;;;2.70;;
33987;SDS011;37428;53.580;-1.666;2023-08-06T08:59:30;2.70;;;2.13;;
33987;SDS011;37428;53.580;-1.666;2023-08-06T09:02:34;3.13;;;2.30;;
33987;SDS011;37428;53.580;-1.666;2023-08-06T09:05:39;3.67;;;2.15;;
33987;SDS011;37428;53.580;-1.666;2023-08-06T09:08:47;2.97;;;1.80;;
33987;SDS011;37428;53.580;-1.666;2023-08-06T09:11:55;2.00;;;1.80;;
33987;SDS011;37428;53.580;-1.666;2023-08-06T09:15:04;3.55;;;2.38;;
33987;SDS011;37428;53.580;-1.666;2023-08-06T09:18:11;2.05;;;1.70;;
33987;SDS011;37428;53.580;-1.666;2023-08-06T09:21:14;2.70;;;2.30;;
33987;SDS011;37428;53.580;-1.666;2023-08-06T09:24:17;3.97;;;2.10;;
33987;SDS011;37428;53.580;-1.666;2023-08-06T09:27:19;3.50;;;2.10;;
33987;SDS011;37428;53.580;-1.666;2023-08-06T09:30:33;2.72;;;2.25;;
33987;SDS011;37428;53.580;-1.666;2023-08-06T09:33:37;1.70;;;1.60;;
33987;SDS011;37428;53.580;-1.666;2023-08-06T09:36:40;3.63;;;2.20;;
33987;SDS011;37428;53.580;-1.666;2023-08-06T09:39:43;2.10;;;1.85;;
33987;SDS011;37428;53.580;-1.666;2023-08-06T09:42:45;2.97;;;2.70;;
33987;SDS011;37428;53.580;-1.666;2023-08-06T09:45:48;2.30;;;2.10;;
33987;SDS011;37428;53.580;-1.666;2023-08-06T09:48:51;2.40;;;1.83;;
33987;SDS011;37428;53.580;-1.666;2023-08-06T09:51:53;2.53;;;2.00;;
33987;SDS011;37428;53.580;-1.666;2023-08-06T09:54:58;2.35;;;1.77;;
33987;SDS011;37428;53.580;-1.666;2023-08-06T09:58:00;2.40;;;1.77;;
33987;SDS011;37428;53.580;-1.666;2023-08-06T10:01:05;3.10;;;1.90;;
33987;SDS011;37428;53.580;-1.666;2023-08-06T10:04:08;1.92;;;1.60;;
33987;SDS011;37428;53.580;-1.666;2023-08-06T10:07:11;2.53;;;2.05;;
33987;SDS011;37428;53.580;-1.666;2023-08-06T10:13:16;3.17;;;1.70;;
33987;SDS011;37428;53.580;-1.666;2023-08-06T10:16:20;1.85;;;1.50;;
33987;SDS011;37428;53.580;-1.666;2023-08-06T10:19:23;1.95;;;1.80;;
33987;SDS011;37428;53.580;-1.666;2023-08-06T10:22:26;2.35;;;1.95;;
33987;SDS011;37428;53.580;-1.666;2023-08-06T10:25:30;2.97;;;1.92;;
33987;SDS011;37428;53.580;-1.666;2023-08-06T10:28:36;2.20;;;2.00;;
33987;SDS011;37428;53.580;-1.666;2023-08-06T10:31:55;1.98;;;1.73;;
33987;SDS011;37428;53.580;-1.666;2023-08-06T10:35:01;1.63;;;1.42;;
33987;SDS011;37428;53.580;-1.666;2023-08-06T10:38:04;2.05;;;1.75;;
33987;SDS011;37428;53.580;-1.666;2023-08-06T10:41:08;2.13;;;1.83;;
33987;SDS011;37428;53.580;-1.666;2023-08-06T10:44:17;4.32;;;1.65;;
33987;SDS011;37428;53.580;-1.666;2023-08-06T10:47:27;2.92;;;2.63;;
33987;SDS011;37428;53.580;-1.666;2023-08-06T10:50:29;1.95;;;1.70;;
33987;SDS011;37428;53.580;-1.666;2023-08-06T10:53:32;1.77;;;1.58;;
33987;SDS011;37428;53.580;-1.666;2023-08-06T10:56:39;2.53;;;1.63;;
33987;SDS011;37428;53.580;-1.666;2023-08-06T10:59:42;3.00;;;1.88;;
33987;SDS011;37428;53.580;-1.666;2023-08-06T11:02:45;2.72;;;2.05;;
33987;SDS011;37428;53.580;-1.666;2023-08-06T11:05:49;2.33;;;2.13;;
33987;SDS011;37428;53.580;-1.666;2023-08-06T11:08:52;2.50;;;1.65;;
33987;SDS011;37428;53.580;-1.666;2023-08-06T11:11:56;2.00;;;1.63;;
33987;SDS011;37428;53.580;-1.666;2023-08-06T11:14:58;2.15;;;1.65;;
33987;SDS011;37428;53.580;-1.666;2023-08-06T11:18:01;2.05;;;1.60;;
33987;SDS011;37428;53.580;-1.666;2023-08-06T11:21:03;1.85;;;1.60;;
33987;SDS011;37428;53.580;-1.666;2023-08-06T11:24:06;5.55;;;2.00;;
33987;SDS011;37428;53.580;-1.666;2023-08-06T11:27:11;1.80;;;1.70;;
33987;SDS011;37428;53.580;-1.666;2023-08-06T11:30:14;2.00;;;1.85;;
33987;SDS011;37428;53.580;-1.666;2023-08-06T11:33:21;2.85;;;1.50;;
33987;SDS011;37428;53.580;-1.666;2023-08-06T11:36:28;1.75;;;1.52;;
33987;SDS011;37428;53.580;-1.666;2023-08-06T11:39:31;1.60;;;1.40;;
33987;SDS011;37428;53.580;-1.666;2023-08-06T11:42:34;2.03;;;1.17;;
33987;SDS011;37428;53.580;-1.666;2023-08-06T11:45:37;3.08;;;1.42;;
33987;SDS011;37428;53.580;-1.666;2023-08-06T11:48:51;2.30;;;1.60;;
33987;SDS011;37428;53.580;-1.666;2023-08-06T11:51:54;5.25;;;1.50;;
33987;SDS011;37428;53.580;-1.666;2023-08-06T11:54:59;1.90;;;1.40;;
33987;SDS011;37428;53.580;-1.666;2023-08-06T11:58:03;4.57;;;1.40;;
33987;SDS011;37428;53.580;-1.666;2023-08-06T12:01:06;1.50;;;1.40;;
33987;SDS011;37428;53.580;-1.666;2023-08-06T12:04:09;1.63;;;1.30;;
33987;SDS011;37428;53.580;-1.666;2023-08-06T12:07:11;3.58;;;1.58;;
33987;SDS011;37428;53.580;-1.666;2023-08-06T12:10:13;1.60;;;1.50;;
33987;SDS011;37428;53.580;-1.666;2023-08-06T12:13:16;2.33;;;1.27;;
33987;SDS011;37428;53.580;-1.666;2023-08-06T12:16:18;2.75;;;1.55;;
33987;SDS011;37428;53.580;-1.666;2023-08-06T12:19:23;2.30;;;1.48;;
33987;SDS011;37428;53.580;-1.666;2023-08-06T12:22:26;2.10;;;1.10;;
33987;SDS011;37428;53.580;-1.666;2023-08-06T12:25:31;5.38;;;1.23;;
33987;SDS011;37428;53.580;-1.666;2023-08-06T12:28:33;2.25;;;1.40;;
33987;SDS011;37428;53.580;-1.666;2023-08-06T12:31:35;1.10;;;1.00;;
33987;SDS011;37428;53.580;-1.666;2023-08-06T12:34:39;1.80;;;1.27;;
33987;SDS011;37428;53.580;-1.666;2023-08-06T12:37:42;3.20;;;1.20;;
33987;SDS011;37428;53.580;-1.666;2023-08-06T12:40:45;1.10;;;1.00;;
33987;SDS011;37428;53.580;-1.666;2023-08-06T12:43:47;2.08;;;1.10;;
33987;SDS011;37428;53.580;-1.666;2023-08-06T12:46:50;3.13;;;1.40;;
33987;SDS011;37428;53.580;-1.666;2023-08-06T12:49:53;1.25;;;1.13;;
33987;SDS011;37428;53.580;-1.666;2023-08-06T12:52:55;1.88;;;1.30;;
33987;SDS011;37428;53.580;-1.666;2023-08-06T12:55:58;1.27;;;1.02;;
33987;SDS011;37428;53.580;-1.666;2023-08-06T12:59:00;4.15;;;1.50;;
33987;SDS011;37428;53.580;-1.666;2023-08-06T13:02:02;3.42;;;1.10;;
33987;SDS011;37428;53.580;-1.666;2023-08-06T13:05:05;1.40;;;1.30;;
33987;SDS011;37428;53.580;-1.666;2023-08-06T13:08:09;2.42;;;1.55;;
33987;SDS011;37428;53.580;-1.666;2023-08-06T13:11:11;1.98;;;1.40;;
33987;SDS011;37428;53.580;-1.666;2023-08-06T13:14:13;2.05;;;1.60;;
33987;SDS011;37428;53.580;-1.666;2023-08-06T13:20:20;2.03;;;1.63;;
33987;SDS011;37428;53.580;-1.666;2023-08-06T13:23:23;1.80;;;1.67;;
33987;SDS011;37428;53.580;-1.666;2023-08-06T13:26:25;4.97;;;2.13;;
33987;SDS011;37428;53.580;-1.666;2023-08-06T13:29:27;1.92;;;1.80;;
33987;SDS011;37428;53.580;-1.666;2023-08-06T13:32:29;2.20;;;1.30;;
33987;SDS011;37428;53.580;-1.666;2023-08-06T13:35:34;3.63;;;1.30;;
33987;SDS011;37428;53.580;-1.666;2023-08-06T13:38:36;1.80;;;1.40;;
33987;SDS011;37428;53.580;-1.666;2023-08-06T13:41:38;1.85;;;1.63;;
33987;SDS011;37428;53.580;-1.666;2023-08-06T13:44:40;2.60;;;1.80;;
33987;SDS011;37428;53.580;-1.666;2023-08-06T13:47:42;1.60;;;1.50;;
33987;SDS011;37428;53.580;-1.666;2023-08-06T13:50:46;4.30;;;1.42;;
33987;SDS011;37428;53.580;-1.666;2023-08-06T13:53:48;3.22;;;1.50;;
33987;SDS011;37428;53.580;-1.666;2023-08-06T13:56:52;2.97;;;1.52;;
33987;SDS011;37428;53.580;-1.666;2023-08-06T13:59:54;1.90;;;1.45;;
33987;SDS011;37428;53.580;-1.666;2023-08-06T14:02:56;2.53;;;1.33;;
33987;SDS011;37428;53.580;-1.666;2023-08-06T14:06:00;1.27;;;1.17;;
33987;SDS011;37428;53.580;-1.666;2023-08-06T14:09:02;2.47;;;1.13;;
33987;SDS011;37428;53.580;-1.666;2023-08-06T14:12:07;1.15;;;1.00;;
33987;SDS011;37428;53.580;-1.666;2023-08-06T14:15:10;2.60;;;0.85;;
33987;SDS011;37428;53.580;-1.666;2023-08-06T14:18:12;1.25;;;1.15;;
33987;SDS011;37428;53.580;-1.666;2023-08-06T14:24:18;4.10;;;1.65;;
33987;SDS011;37428;53.580;-1.666;2023-08-06T14:27:20;4.90;;;2.00;;
33987;SDS011;37428;53.580;-1.666;2023-08-06T14:30:22;3.50;;;1.88;;
33987;SDS011;37428;53.580;-1.666;2023-08-06T14:33:25;2.97;;;1.17;;
33987;SDS011;37428;53.580;-1.666;2023-08-06T14:36:28;1.30;;;1.20;;
33987;SDS011;37428;53.580;-1.666;2023-08-06T14:39:30;1.92;;;1.73;;
33987;SDS011;37428;53.580;-1.666;2023-08-06T14:42:33;1.90;;;1.42;;
33987;SDS011;37428;53.580;-1.666;2023-08-06T14:45:37;1.85;;;1.42;;
33987;SDS011;37428;53.580;-1.666;2023-08-06T14:48:39;1.33;;;1.23;;
33987;SDS011;37428;53.580;-1.666;2023-08-06T14:51:43;1.10;;;0.90;;
33987;SDS011;37428;53.580;-1.666;2023-08-06T14:54:47;1.40;;;1.30;;
33987;SDS011;37428;53.580;-1.666;2023-08-06T14:57:52;4.03;;;1.20;;
33987;SDS011;37428;53.580;-1.666;2023-08-06T15:00:57;1.73;;;1.10;;
33987;SDS011;37428;53.580;-1.666;2023-08-06T15:03:59;1.33;;;1.10;;
33987;SDS011;37428;53.580;-1.666;2023-08-06T15:07:03;2.33;;;1.08;;
33987;SDS011;37428;53.580;-1.666;2023-08-06T15:10:05;1.23;;;0.80;;
33987;SDS011;37428;53.580;-1.666;2023-08-06T15:13:08;0.93;;;0.93;;
33987;SDS011;37428;53.580;-1.666;2023-08-06T15:16:10;0.70;;;0.70;;
33987;SDS011;37428;53.580;-1.666;2023-08-06T15:19:12;0.93;;;0.55;;
33987;SDS011;37428;53.580;-1.666;2023-08-06T15:22:16;0.68;;;0.68;;
33987;SDS011;37428;53.580;-1.666;2023-08-06T15:25:18;0.73;;;0.60;;
33987;SDS011;37428;53.580;-1.666;2023-08-06T15:28:20;0.95;;;0.60;;
33987;SDS011;37428;53.580;-1.666;2023-08-06T15:31:22;0.50;;;0.40;;
33987;SDS011;37428;53.580;-1.666;2023-08-06T15:34:24;0.75;;;0.40;;
33987;SDS011;37428;53.580;-1.666;2023-08-06T15:37:28;0.60;;;0.45;;
33987;SDS011;37428;53.580;-1.666;2023-08-06T15:40:31;0.60;;;0.55;;
33987;SDS011;37428;53.580;-1.666;2023-08-06T15:43:33;0.70;;;0.50;;
33987;SDS011;37428;53.580;-1.666;2023-08-06T15:46:36;0.45;;;0.45;;
33987;SDS011;37428;53.580;-1.666;2023-08-06T15:49:38;0.60;;;0.60;;
33987;SDS011;37428;53.580;-1.666;2023-08-06T15:52:42;1.50;;;0.40;;
33987;SDS011;37428;53.580;-1.666;2023-08-06T15:55:45;2.17;;;0.55;;
33987;SDS011;37428;53.580;-1.666;2023-08-06T15:58:47;1.25;;;0.85;;
33987;SDS011;37428;53.580;-1.666;2023-08-06T16:01:49;2.28;;;0.50;;
33987;SDS011;37428;53.580;-1.666;2023-08-06T16:04:52;2.28;;;0.60;;
33987;SDS011;37428;53.580;-1.666;2023-08-06T16:10:58;1.27;;;0.68;;
33987;SDS011;37428;53.580;-1.666;2023-08-06T16:14:00;3.80;;;0.70;;
33987;SDS011;37428;53.580;-1.666;2023-08-06T16:20:05;1.58;;;0.90;;
33987;SDS011;37428;53.580;-1.666;2023-08-06T16:23:09;1.73;;;1.10;;
33987;SDS011;37428;53.580;-1.666;2023-08-06T16:26:12;1.95;;;1.00;;
33987;SDS011;37428;53.580;-1.666;2023-08-06T16:29:14;3.42;;;0.90;;
33987;SDS011;37428;53.580;-1.666;2023-08-06T16:32:16;1.58;;;0.88;;
33987;SDS011;37428;53.580;-1.666;2023-08-06T16:35:18;1.55;;;0.80;;
33987;SDS011;37428;53.580;-1.666;2023-08-06T16:38:24;1.70;;;0.95;;
33987;SDS011;37428;53.580;-1.666;2023-08-06T16:41:26;0.85;;;0.77;;
33987;SDS011;37428;53.580;-1.666;2023-08-06T16:44:29;1.52;;;0.70;;
33987;SDS011;37428;53.580;-1.666;2023-08-06T16:47:32;1.10;;;0.90;;
33987;SDS011;37428;53.580;-1.666;2023-08-06T16:50:34;2.38;;;1.60;;
33987;SDS011;37428;53.580;-1.666;2023-08-06T16:53:39;0.60;;;0.57;;
33987;SDS011;37428;53.580;-1.666;2023-08-06T16:56:42;1.60;;;0.80;;
33987;SDS011;37428;53.580;-1.666;2023-08-06T16:59:45;0.60;;;0.60;;
33987;SDS011;37428;53.580;-1.666;2023-08-06T17:02:47;0.55;;;0.55;;
33987;SDS011;37428;53.580;-1.666;2023-08-06T17:05:49;0.90;;;0.50;;
33987;SDS011;37428;53.580;-1.666;2023-08-06T17:08:52;0.60;;;0.40;;
33987;SDS011;37428;53.580;-1.666;2023-08-06T17:11:55;0.93;;;0.55;;
33987;SDS011;37428;53.580;-1.666;2023-08-06T17:14:57;0.50;;;0.40;;
33987;SDS011;37428;53.580;-1.666;2023-08-06T17:17:59;2.10;;;0.65;;
33987;SDS011;37428;53.580;-1.666;2023-08-06T17:21:01;8.40;;;1.27;;
33987;SDS011;37428;53.580;-1.666;2023-08-06T17:24:05;1.58;;;0.55;;
33987;SDS011;37428;53.580;-1.666;2023-08-06T17:27:08;2.67;;;0.80;;
33987;SDS011;37428;53.580;-1.666;2023-08-06T17:30:10;1.08;;;0.80;;
33987;SDS011;37428;53.580;-1.666;2023-08-06T17:33:12;0.77;;;0.60;;
33987;SDS011;37428;53.580;-1.666;2023-08-06T17:36:17;0.85;;;0.57;;
33987;SDS011;37428;53.580;-1.666;2023-08-06T17:39:21;0.55;;;0.50;;
33987;SDS011;37428;53.580;-1.666;2023-08-06T17:42:23;1.90;;;1.00;;
33987;SDS011;37428;53.580;-1.666;2023-08-06T17:45:25;2.47;;;0.60;;
33987;SDS011;37428;53.580;-1.666;2023-08-06T17:48:27;1.95;;;0.70;;
33987;SDS011;37428;53.580;-1.666;2023-08-06T17:51:29;2.58;;;0.80;;
33987;SDS011;37428;53.580;-1.666;2023-08-06T17:54:33;1.65;;;0.77;;
33987;SDS011;37428;53.580;-1.666;2023-08-06T17:57:35;1.40;;;0.50;;
33987;SDS011;37428;53.580;-1.666;2023-08-06T18:00:37;1.40;;;1.30;;
33987;SDS011;37428;53.580;-1.666;2023-08-06T18:03:39;2.67;;;1.02;;
33987;SDS011;37428;53.580;-1.666;2023-08-06T18:06:43;2.55;;;0.88;;
33987;SDS011;37428;53.580;-1.666;2023-08-06T18:09:47;0.88;;;0.88;;
33987;SDS011;37428;53.580;-1.666;2023-08-06T18:12:49;0.98;;;0.68;;
33987;SDS011;37428;53.580;-1.666;2023-08-06T18:15:51;0.70;;;0.70;;
33987;SDS011;37428;53.580;-1.666;2023-08-06T18:18:53;2.25;;;0.90;;
33987;SDS011;37428;53.580;-1.666;2023-08-06T18:22:00;1.17;;;1.00;;
33987;SDS011;37428;53.580;-1.666;2023-08-06T18:25:04;3.30;;;0.80;;
33987;SDS011;37428;53.580;-1.666;2023-08-06T18:28:07;0.93;;;0.70;;